Time,TemperatureF,DewpointF,PressureIn,WindDirection,WindDirectionDegrees,WindSpeedMPH,WindSpeedGustMPH,Humidity,HourlyPrecipIn,Conditions,Clouds,dailyrainin,SoftwareType,DateUTC
2013-03-02 00:14:00,31.3,24.3,29.88,West,270,3.2,-999.0,75,-99.99,,,0.00,Acu-Link.com,2013-03-02 06:14:00,
2013-03-02 00:29:00,31.1,24.1,29.88,SW,225,4.2,-999.0,75,-99.99,,,0.00,Acu-Link.com,2013-03-02 06:29:00,
2013-03-02 00:44:00,30.9,23.9,29.88,South,180,1.7,-999.0,75,-99.99,,,0.00,Acu-Link.com,2013-03-02 06:44:00,
2013-03-02 00:59:00,30.9,24.2,29.88,SW,225,3.7,-999.0,76,-99.99,,,0.00,Acu-Link.com,2013-03-02 06:59:00,
2013-03-02 01:14:00,30.9,24.2,29.88,West,270,2.7,-999.0,76,-99.99,,,0.00,Acu-Link.com,2013-03-02 07:14:00,
2013-03-02 01:30:00,30.7,24.4,29.87,West,270,0.0,-999.0,77,-99.99,,,0.00,Acu-Link.com,2013-03-02 07:30:00,
2013-03-02 01:45:00,30.6,24.3,29.87,West,270,2.7,-999.0,77,-99.99,,,0.00,Acu-Link.com,2013-03-02 07:45:00,
2013-03-02 02:00:00,30.4,24.4,29.87,SSE,157,4.2,-999.0,78,-99.99,,,0.00,Acu-Link.com,2013-03-02 08:00:00,
2013-03-02 02:15:00,30.0,24.3,29.86,SW,225,0.0,-999.0,79,-99.99,,,0.00,Acu-Link.com,2013-03-02 08:15:00,
2013-03-02 02:30:00,30.0,24.3,29.86,West,270,0.0,-999.0,79,-99.99,,,0.00,Acu-Link.com,2013-03-02 08:30:00,
2013-03-02 02:45:00,30.0,24.3,29.86,West,270,2.7,-999.0,79,-99.99,,,0.00,Acu-Link.com,2013-03-02 08:45:00,
2013-03-02 03:00:00,30.0,24.6,29.86,West,270,0.0,-999.0,80,-99.99,,,0.00,Acu-Link.com,2013-03-02 09:00:00,
2013-03-02 03:18:00,29.8,24.4,29.86,SW,225,3.7,-999.0,80,-99.99,,,0.00,Acu-Link.com,2013-03-02 09:18:00,
2013-03-02 03:34:00,29.5,23.8,29.86,West,270,3.2,-999.0,79,-99.99,,,0.00,Acu-Link.com,2013-03-02 09:34:00,
2013-03-02 03:49:00,29.7,24.0,29.86,West,270,1.7,-999.0,79,-99.99,,,0.00,Acu-Link.com,2013-03-02 09:49:00,
2013-03-02 04:04:00,29.5,23.8,29.85,SW,225,0.0,-999.0,79,-99.99,,,0.00,Acu-Link.com,2013-03-02 10:04:00,
2013-03-02 04:19:00,29.3,23.6,29.86,West,270,2.7,-999.0,79,-99.99,,,0.00,Acu-Link.com,2013-03-02 10:19:00,
2013-03-02 04:34:00,29.3,23.6,29.86,SW,225,0.0,-999.0,79,-99.99,,,0.00,Acu-Link.com,2013-03-02 10:34:00,
2013-03-02 04:49:00,29.1,23.4,29.86,NNW,337,0.0,-999.0,79,-99.99,,,0.00,Acu-Link.com,2013-03-02 10:49:00,
2013-03-02 05:04:00,29.1,23.4,29.86,WNW,292,3.2,-999.0,79,-99.99,,,0.00,Acu-Link.com,2013-03-02 11:04:00,
2013-03-02 05:19:00,29.1,23.7,29.86,SW,225,0.0,-999.0,80,-99.99,,,0.00,Acu-Link.com,2013-03-02 11:19:00,
2013-03-02 05:34:00,29.1,24.0,29.86,WNW,292,2.2,-999.0,81,-99.99,,,0.00,Acu-Link.com,2013-03-02 11:34:00,
2013-03-02 05:50:00,28.9,23.5,29.86,WNW,292,3.2,-999.0,80,-99.99,,,0.00,Acu-Link.com,2013-03-02 11:50:00,
2013-03-02 06:05:00,28.9,23.5,29.86,SSW,202,2.7,-999.0,80,-99.99,,,0.00,Acu-Link.com,2013-03-02 12:05:00,
2013-03-02 06:20:00,28.8,23.4,29.84,SW,225,0.0,-999.0,80,-99.99,,,0.00,Acu-Link.com,2013-03-02 12:20:00,
2013-03-02 06:35:00,28.8,23.4,29.85,West,270,4.7,-999.0,80,-99.99,,,0.00,Acu-Link.com,2013-03-02 12:35:00,
2013-03-02 06:50:00,28.8,23.7,29.85,WNW,292,3.7,-999.0,81,-99.99,,,0.00,Acu-Link.com,2013-03-02 12:50:00,
2013-03-02 07:05:00,28.9,23.8,29.85,West,270,0.0,-999.0,81,-99.99,,,0.00,Acu-Link.com,2013-03-02 13:05:00,
2013-03-02 07:21:00,28.8,23.4,29.85,West,270,7.3,-999.0,80,-99.99,,,0.00,Acu-Link.com,2013-03-02 13:21:00,
2013-03-02 07:36:00,28.6,23.2,29.85,West,270,3.7,-999.0,80,-99.99,,,0.00,Acu-Link.com,2013-03-02 13:36:00,
2013-03-02 07:51:00,28.8,23.7,29.85,West,270,2.7,-999.0,81,-99.99,,,0.00,Acu-Link.com,2013-03-02 13:51:00,
2013-03-02 08:06:00,29.5,24.1,29.85,West,270,2.7,-999.0,80,-99.99,,,0.00,Acu-Link.com,2013-03-02 14:06:00,
2013-03-02 08:21:00,30.4,24.7,29.85,West,270,4.7,-999.0,79,-99.99,,,0.00,Acu-Link.com,2013-03-02 14:21:00,
2013-03-02 08:36:00,30.6,24.3,29.85,WSW,247,5.3,-999.0,77,-99.99,,,0.00,Acu-Link.com,2013-03-02 14:36:00,
2013-03-02 08:51:00,32.2,24.5,29.85,SW,225,2.7,-999.0,73,-99.99,,,0.00,Acu-Link.com,2013-03-02 14:51:00,
2013-03-02 09:06:00,34.2,24.4,29.85,NNW,337,3.7,-999.0,67,-99.99,,,0.00,Acu-Link.com,2013-03-02 15:06:00,
2013-03-02 09:21:00,33.4,22.9,29.85,West,270,2.7,-999.0,65,-99.99,,,0.00,Acu-Link.com,2013-03-02 15:21:00,
2013-03-02 09:37:00,32.2,22.1,29.85,NNW,337,3.7,-999.0,66,-99.99,,,0.00,Acu-Link.com,2013-03-02 15:37:00,
2013-03-02 09:52:00,31.8,23.8,29.85,SSW,202,1.1,-999.0,72,-99.99,,,0.00,Acu-Link.com,2013-03-02 15:52:00,
2013-03-02 10:07:00,34.0,24.6,29.85,West,270,2.7,-999.0,68,-99.99,,,0.00,Acu-Link.com,2013-03-02 16:07:00,
2013-03-02 10:22:00,32.7,23.0,29.85,West,270,2.2,-999.0,67,-99.99,,,0.00,Acu-Link.com,2013-03-02 16:22:00,
2013-03-02 10:37:00,33.8,24.4,29.86,SSW,202,4.2,-999.0,68,-99.99,,,0.00,Acu-Link.com,2013-03-02 16:37:00,
2013-03-02 10:52:00,33.6,24.2,29.85,WSW,247,4.2,-999.0,68,-99.99,,,0.00,Acu-Link.com,2013-03-02 16:52:00,
2013-03-02 11:07:00,34.0,23.1,29.85,West,270,3.2,-999.0,64,-99.99,,,0.00,Acu-Link.com,2013-03-02 17:07:00,
2013-03-02 11:22:00,33.4,22.2,29.85,West,270,5.8,-999.0,63,-99.99,,,0.00,Acu-Link.com,2013-03-02 17:22:00,
2013-03-02 11:37:00,34.0,23.1,29.85,WNW,292,4.2,-999.0,64,-99.99,,,0.00,Acu-Link.com,2013-03-02 17:37:00,
2013-03-02 11:53:00,33.4,23.3,29.84,SSW,202,2.2,-999.0,66,-99.99,,,0.00,Acu-Link.com,2013-03-02 17:53:00,
2013-03-02 12:08:00,34.9,24.3,29.85,West,270,5.3,-999.0,65,-99.99,,,0.00,Acu-Link.com,2013-03-02 18:08:00,
2013-03-02 12:23:00,35.1,24.5,29.83,North,0,4.7,-999.0,65,-99.99,,,0.00,Acu-Link.com,2013-03-02 18:23:00,
2013-03-02 12:38:00,34.7,23.8,29.83,WNW,292,4.7,-999.0,64,-99.99,,,0.00,Acu-Link.com,2013-03-02 18:38:00,
2013-03-02 12:53:00,35.1,24.2,29.83,West,270,3.7,-999.0,64,-99.99,,,0.00,Acu-Link.com,2013-03-02 18:53:00,
2013-03-02 13:08:00,34.9,24.3,29.82,West,270,3.7,-999.0,65,-99.99,,,0.00,Acu-Link.com,2013-03-02 19:08:00,
2013-03-02 13:23:00,34.2,25.1,29.83,West,270,6.3,-999.0,69,-99.99,,,0.00,Acu-Link.com,2013-03-02 19:23:00,
2013-03-02 13:38:00,34.3,24.9,29.83,NW,315,5.3,-999.0,68,-99.99,,,0.00,Acu-Link.com,2013-03-02 19:38:00,
2013-03-02 13:53:00,32.9,26.2,29.83,West,270,2.7,-999.0,76,-99.99,,,0.00,Acu-Link.com,2013-03-02 19:53:00,
2013-03-02 14:08:00,33.1,25.7,29.83,SE,135,3.7,-999.0,74,-99.99,,,0.00,Acu-Link.com,2013-03-02 20:08:00,
2013-03-02 14:24:00,32.9,25.5,29.83,SW,225,5.8,-999.0,74,-99.99,,,0.00,Acu-Link.com,2013-03-02 20:24:00,
2013-03-02 14:39:00,30.9,24.9,29.83,West,270,8.3,-999.0,78,-99.99,,,0.00,Acu-Link.com,2013-03-02 20:39:00,
2013-03-02 15:09:00,32.5,25.2,29.84,West,270,6.3,-999.0,74,-99.99,,,0.00,Acu-Link.com,2013-03-02 21:09:00,
2013-03-02 15:24:00,32.5,25.8,29.84,NNW,337,4.2,-999.0,76,-99.99,,,0.00,Acu-Link.com,2013-03-02 21:24:00,
2013-03-02 15:39:00,32.2,25.8,29.83,SW,225,3.2,-999.0,77,-99.99,,,0.00,Acu-Link.com,2013-03-02 21:39:00,
2013-03-02 15:54:00,31.5,25.1,29.84,NW,315,3.2,-999.0,77,-99.99,,,0.00,Acu-Link.com,2013-03-02 21:54:00,
2013-03-02 16:09:00,31.6,24.9,29.84,West,270,4.7,-999.0,76,-99.99,,,0.00,Acu-Link.com,2013-03-02 22:09:00,
2013-03-02 16:25:00,31.6,24.9,29.84,West,270,3.7,-999.0,76,-99.99,,,0.00,Acu-Link.com,2013-03-02 22:25:00,
2013-03-02 16:40:00,31.8,25.1,29.84,North,0,1.1,-999.0,76,-99.99,,,0.00,Acu-Link.com,2013-03-02 22:40:00,
2013-03-02 16:55:00,31.6,24.9,29.86,SW,225,4.2,-999.0,76,-99.99,,,0.00,Acu-Link.com,2013-03-02 22:55:00,
2013-03-02 17:10:00,31.3,24.9,29.86,WSW,247,3.7,-999.0,77,-99.99,,,0.00,Acu-Link.com,2013-03-02 23:10:00,
2013-03-02 17:25:00,31.1,24.7,29.86,SSE,157,2.7,-999.0,77,-99.99,,,0.00,Acu-Link.com,2013-03-02 23:25:00,
2013-03-02 17:40:00,30.9,24.6,29.87,West,270,0.0,-999.0,77,-99.99,,,0.00,Acu-Link.com,2013-03-02 23:40:00,
2013-03-02 17:55:00,30.9,24.6,29.87,West,270,0.0,-999.0,77,-99.99,,,0.00,Acu-Link.com,2013-03-02 23:55:00,
2013-03-02 18:10:00,30.9,24.6,29.87,WSW,247,3.7,-999.0,77,-99.99,,,0.00,Acu-Link.com,2013-03-03 00:10:00,
2013-03-02 18:25:00,30.9,25.2,29.88,NNW,337,3.7,-999.0,79,-99.99,,,0.00,Acu-Link.com,2013-03-03 00:25:00,
2013-03-02 18:41:00,30.7,24.7,29.87,WNW,292,2.7,-999.0,78,-99.99,,,0.00,Acu-Link.com,2013-03-03 00:41:00,
2013-03-02 18:56:00,30.6,24.9,29.88,West,270,2.7,-999.0,79,-99.99,,,0.00,Acu-Link.com,2013-03-03 00:56:00,
2013-03-02 19:11:00,30.6,24.9,29.88,West,270,2.7,-999.0,79,-99.99,,,0.00,Acu-Link.com,2013-03-03 01:11:00,
2013-03-02 19:26:00,30.2,24.5,29.88,West,270,4.2,-999.0,79,-99.99,,,0.00,Acu-Link.com,2013-03-03 01:26:00,
2013-03-02 19:41:00,30.2,24.5,29.88,SSW,202,0.0,-999.0,79,-99.99,,,0.00,Acu-Link.com,2013-03-03 01:41:00,
2013-03-02 19:56:00,30.2,24.5,29.88,West,270,3.7,-999.0,79,-99.99,,,0.00,Acu-Link.com,2013-03-03 01:56:00,
2013-03-02 20:11:00,30.0,24.6,29.89,West,270,2.7,-999.0,80,-99.99,,,0.00,Acu-Link.com,2013-03-03 02:11:00,
2013-03-02 20:26:00,29.8,24.7,29.90,West,270,3.7,-999.0,81,-99.99,,,0.00,Acu-Link.com,2013-03-03 02:26:00,
2013-03-02 20:41:00,28.9,24.7,29.90,WNW,292,0.0,-999.0,84,-99.99,,,0.00,Acu-Link.com,2013-03-03 02:41:00,
2013-03-02 20:57:00,28.9,24.4,29.89,WNW,292,0.0,-999.0,83,-99.99,,,0.00,Acu-Link.com,2013-03-03 02:57:00,
2013-03-02 21:12:00,29.1,24.3,29.90,SSW,202,1.7,-999.0,82,-99.99,,,0.00,Acu-Link.com,2013-03-03 03:12:00,
2013-03-02 21:27:00,29.3,24.2,29.90,NW,315,0.0,-999.0,81,-99.99,,,0.00,Acu-Link.com,2013-03-03 03:27:00,
2013-03-02 21:42:00,29.3,23.9,29.91,West,270,3.2,-999.0,80,-99.99,,,0.00,Acu-Link.com,2013-03-03 03:42:00,
2013-03-02 21:57:00,29.3,23.6,29.90,West,270,2.7,-999.0,79,-99.99,,,0.00,Acu-Link.com,2013-03-03 03:57:00,
2013-03-02 22:12:00,29.1,23.4,29.90,WSW,247,1.7,-999.0,79,-99.99,,,0.00,Acu-Link.com,2013-03-03 04:12:00,
2013-03-02 22:27:00,29.1,23.4,29.89,West,270,2.2,-999.0,79,-99.99,,,0.00,Acu-Link.com,2013-03-03 04:27:00,
2013-03-02 22:42:00,28.9,23.8,29.88,WSW,247,4.2,-999.0,81,-99.99,,,0.00,Acu-Link.com,2013-03-03 04:42:00,
2013-03-02 22:57:00,28.8,24.0,29.89,West,270,2.7,-999.0,82,-99.99,,,0.00,Acu-Link.com,2013-03-03 04:57:00,
2013-03-02 23:12:00,28.6,23.8,29.88,WSW,247,0.0,-999.0,82,-99.99,,,0.00,Acu-Link.com,2013-03-03 05:12:00,
2013-03-02 23:28:00,28.6,24.1,29.89,WNW,292,1.7,-999.0,83,-99.99,,,0.00,Acu-Link.com,2013-03-03 05:28:00,
2013-03-02 23:43:00,28.4,23.9,29.90,WSW,247,0.0,-999.0,83,-99.99,,,0.00,Acu-Link.com,2013-03-03 05:43:00,
2013-03-02 23:58:00,28.4,23.9,29.90,SW,225,0.0,-999.0,83,-99.99,,,0.00,Acu-Link.com,2013-03-03 05:58:00,